Terminal Aerodrome Forecast
Issued by NWS

Home | Current Version | Previous Version | Text Only | Print | Product List | Glossary On
Versions: 1 2 3 4 5 6 7 8 9 10 11 12 13
000
FTUS46 KSGX 261100
TAFCRQ
TAF
KCRQ 261130Z 2612/2712 VRB04KT P6SM SCT070 BKN150
     FM261900 21010KT P6SM SCT050 BKN070
     FM270000 VRB06KT P6SM VCSH SCT030 OVC050 PROB30 2700/2706 -SHRA
      BKN030
     FM270600 VRB04KT P6SM BKN040=

USA.gov is the U.S. government's official web portal to all federal, state and local government web resources and services.